Time;durP1;ratioP1;P1;durP2;ratioP2;P2;SDS_P1;SDS_P2;PMS_P1;PMS_P2;Temp;Humidity;BMP_temperature;BMP_pressure;BME280_temperature;BME280_humidity;BME280_pressure;Samples;Min_cycle;Max_cycle;Signal;HPM_P1;HPM_P2
2022/07/01 00:02:06;;;;;;;6.10;4.55;;;15.10;99.90;;;;;;5031762;28;20132;-30
2022/07/01 00:04:32;;;;;;;6.13;4.25;;;15.00;99.90;;;;;;5041092;28;20025;-28
2022/07/01 00:06:58;;;;;;;4.65;3.85;;;15.00;99.90;;;;;;5034159;28;20508;-35
2022/07/01 00:09:24;;;;;;;6.68;4.82;;;15.00;99.90;;;;;;5033052;28;20057;-32
2022/07/01 00:11:50;;;;;;;11.55;4.90;;;14.90;99.90;;;;;;5031996;28;20459;-31
2022/07/01 00:14:16;;;;;;;9.27;5.38;;;14.90;99.90;;;;;;5044710;28;20052;-35
2022/07/01 00:16:42;;;;;;;8.27;5.22;;;14.90;99.90;;;;;;5033016;28;20081;-28
2022/07/01 00:19:07;;;;;;;8.27;5.28;;;14.90;99.90;;;;;;5035033;28;20057;-29
2022/07/01 00:21:33;;;;;;;10.13;5.88;;;14.90;99.90;;;;;;5041043;28;20087;-43
2022/07/01 00:23:59;;;;;;;9.25;6.38;;;14.90;99.90;;;;;;5033543;28;20029;-28
2022/07/01 00:26:24;;;;;;;13.45;6.85;;;14.90;99.90;;;;;;5030029;28;20033;-28
2022/07/01 00:28:50;;;;;;;11.55;7.20;;;14.90;99.90;;;;;;5033228;28;20032;-33
2022/07/01 00:31:16;;;;;;;15.27;9.10;;;15.00;99.90;;;;;;5039342;28;20389;-32
2022/07/01 00:33:41;;;;;;;18.85;9.98;;;15.00;99.90;;;;;;5043073;28;20401;-28
2022/07/01 00:36:07;;;;;;;17.42;10.15;;;15.00;99.90;;;;;;5032401;28;20079;-29
2022/07/01 00:38:33;;;;;;;18.98;11.18;;;15.00;99.90;;;;;;5032331;28;20029;-28
2022/07/01 00:40:59;;;;;;;21.50;11.60;;;15.00;99.90;;;;;;5017009;28;20052;-28
2022/07/01 00:43:25;;;;;;;19.90;11.18;;;15.00;99.90;;;;;;5031616;28;20026;-31
2022/07/01 00:45:52;;;;;;;19.05;11.60;;;15.10;99.90;;;;;;5031625;28;20117;-29
2022/07/01 00:48:19;;;;;;;24.07;13.60;;;15.10;99.90;;;;;;5033306;28;20095;-52
2022/07/01 00:50:45;;;;;;;22.17;13.45;;;15.00;99.90;;;;;;5031646;28;20369;-33
2022/07/01 00:53:13;;;;;;;24.88;13.65;;;15.10;99.90;;;;;;5043029;28;20075;-28
2022/07/01 00:55:40;;;;;;;;;;;15.10;99.90;;;;;;5031399;28;20494;-27
2022/07/01 00:58:06;;;;;;;25.95;13.77;;;15.10;99.90;;;;;;5031861;28;19909;-28
2022/07/01 01:00:32;;;;;;;22.95;13.93;;;15.10;99.90;;;;;;5031646;28;20029;-31
2022/07/01 01:02:58;;;;;;;20.75;13.40;;;15.10;99.90;;;;;;5044230;28;20021;-44
2022/07/01 01:05:25;;;;;;;25.70;14.25;;;15.10;99.90;;;;;;5032508;28;20045;-47
2022/07/01 01:07:51;;;;;;;26.85;14.30;;;15.10;99.90;;;;;;5046009;28;20049;-34
2022/07/01 01:10:20;;;;;;;28.30;14.57;;;15.10;99.90;;;;;;5029920;28;20063;-33
2022/07/01 01:12:46;;;;;;;28.00;14.02;;;15.00;99.90;;;;;;5035193;28;20045;-39
2022/07/01 01:15:20;;;;;;;21.70;13.32;;;15.00;99.90;;;;;;5032923;28;20456;-34
2022/07/01 01:17:48;;;;;;;25.27;13.60;;;14.90;99.90;;;;;;5031191;28;20117;-72
2022/07/01 01:20:16;;;;;;;23.85;13.77;;;14.90;99.90;;;;;;5032188;28;20485;-33
2022/07/01 01:22:43;;;;;;;24.75;14.02;;;14.90;99.90;;;;;;5051764;28;20433;-35
2022/07/01 01:25:08;;;;;;;28.35;15.00;;;14.90;99.90;;;;;;5051781;28;20091;-30
2022/07/01 01:27:34;;;;;;;23.58;14.57;;;14.80;99.90;;;;;;5067689;28;20037;-30
2022/07/01 01:29:59;;;;;;;26.20;14.70;;;14.80;99.90;;;;;;5045146;28;20036;-29
2022/07/01 01:32:25;;;;;;;24.40;14.23;;;14.80;99.90;;;;;;5038079;28;20026;-28
2022/07/01 01:34:51;;;;;;;29.42;14.57;;;14.80;99.90;;;;;;5032079;28;20033;-46
2022/07/01 01:37:17;;;;;;;20.73;13.23;;;14.70;99.90;;;;;;5031307;28;20516;-36
2022/07/01 01:39:42;;;;;;;22.23;13.35;;;14.70;99.90;;;;;;5032706;28;20037;-35
2022/07/01 01:42:08;;;;;;;24.98;13.85;;;14.70;99.90;;;;;;5032694;28;20018;-34
2022/07/01 01:44:34;;;;;;;26.77;14.80;;;14.70;99.90;;;;;;5032727;28;20160;-34
2022/07/01 01:47:00;;;;;;;24.00;13.10;;;14.70;99.90;;;;;;5032177;28;20164;-36
2022/07/01 01:49:25;;;;;;;24.02;13.38;;;14.60;99.90;;;;;;5032663;28;20041;-34
2022/07/01 01:51:51;;;;;;;22.60;13.35;;;14.60;99.90;;;;;;5043977;28;20389;-34
2022/07/01 01:54:16;;;;;;;25.63;12.77;;;14.60;99.90;;;;;;5031680;28;20040;-30
2022/07/01 01:56:42;;;;;;;20.88;13.57;;;14.60;99.90;;;;;;5023163;28;20029;-35
2022/07/01 01:59:08;;;;;;;25.17;13.85;;;14.60;99.90;;;;;;5034550;28;20040;-35
2022/07/01 02:01:33;;;;;;;31.70;14.82;;;14.50;99.90;;;;;;5038921;28;20390;-35
2022/07/01 02:03:59;;;;;;;24.58;13.57;;;14.50;99.90;;;;;;5035669;28;20064;-35
2022/07/01 02:06:25;;;;;;;22.20;13.63;;;14.50;99.90;;;;;;5030424;28;20033;-32
2022/07/01 02:08:51;;;;;;;23.98;14.10;;;14.50;99.90;;;;;;5041001;28;20025;-33
2022/07/01 02:11:17;;;;;;;20.55;12.65;;;14.50;99.90;;;;;;5035988;28;20083;-32
2022/07/01 02:13:44;;;;;;;24.23;12.60;;;14.50;99.90;;;;;;5035159;28;20041;-33
2022/07/01 02:16:10;;;;;;;24.00;12.63;;;14.50;99.90;;;;;;5034549;28;20504;-45
2022/07/01 02:18:35;;;;;;;21.77;13.27;;;14.40;99.90;;;;;;5035377;28;20284;-45
2022/07/01 02:21:01;;;;;;;24.83;12.75;;;14.40;99.90;;;;;;5035934;28;20025;-29
2022/07/01 02:23:28;;;;;;;25.15;12.80;;;14.40;99.90;;;;;;5043622;28;20064;-33
2022/07/01 02:25:53;;;;;;;23.87;12.70;;;14.40;99.90;;;;;;5055732;28;20512;-30
2022/07/01 02:28:19;;;;;;;25.80;12.43;;;14.30;99.90;;;;;;5055684;28;20021;-46
2022/07/01 02:30:44;;;;;;;21.85;12.82;;;14.40;99.90;;;;;;5036737;28;20025;-36
2022/07/01 02:33:11;;;;;;;26.08;13.13;;;14.30;99.90;;;;;;5035787;28;20037;-37
2022/07/01 02:35:38;;;;;;;24.95;13.70;;;14.30;99.90;;;;;;5033741;28;20026;-35
2022/07/01 02:38:05;;;;;;;22.77;12.17;;;14.30;99.90;;;;;;5033830;28;20386;-29
2022/07/01 02:40:31;;;;;;;29.85;13.40;;;14.30;99.90;;;;;;5034551;28;20284;-33
2022/07/01 02:42:56;;;;;;;24.60;12.27;;;14.30;99.90;;;;;;5034945;28;20025;-31
2022/07/01 02:45:24;;;;;;;28.33;13.75;;;14.30;99.90;;;;;;5034835;28;20029;-45
2022/07/01 02:47:50;;;;;;;;;;;14.30;99.90;;;;;;5052597;28;20025;-32
2022/07/01 02:50:18;;;;;;;19.00;10.65;;;14.30;99.90;;;;;;5038932;28;20372;-29
2022/07/01 02:52:44;;;;;;;27.60;11.85;;;14.20;99.90;;;;;;5034586;28;20458;-29
2022/07/01 02:55:12;;;;;;;25.70;11.48;;;14.20;99.90;;;;;;5040485;28;20461;-29
2022/07/01 02:57:38;;;;;;;18.20;11.25;;;14.20;99.90;;;;;;5038097;28;20017;-30
2022/07/01 03:00:06;;;;;;;19.50;10.27;;;14.20;99.90;;;;;;5033132;28;20449;-35
2022/07/01 03:02:32;;;;;;;17.75;10.45;;;14.20;99.90;;;;;;5042569;28;20029;-32
2022/07/01 03:04:58;;;;;;;21.52;11.48;;;14.20;99.90;;;;;;5036957;28;20025;-29
2022/07/01 03:07:24;;;;;;;27.08;12.40;;;14.20;99.90;;;;;;5038394;28;20039;-32
2022/07/01 03:09:50;;;;;;;20.92;10.73;;;14.20;99.90;;;;;;5041886;28;20032;-35
2022/07/01 03:12:25;;;;;;;16.02;10.13;;;14.20;99.90;;;;;;5034676;28;20060;-35
2022/07/01 03:14:59;;;;;;;19.23;10.57;;;14.20;99.90;;;;;;5034927;28;20048;-35
2022/07/01 03:17:26;;;;;;;22.27;9.65;;;14.20;99.90;;;;;;5039970;28;20495;-37
2022/07/01 03:19:53;;;;;;;24.58;11.95;;;14.20;99.90;;;;;;5035103;28;20036;-36
2022/07/01 03:22:23;;;;;;;16.37;9.93;;;14.20;99.90;;;;;;5035096;28;20083;-35
2022/07/01 03:24:50;;;;;;;18.00;10.07;;;14.10;99.90;;;;;;5033326;28;20064;-30
2022/07/01 03:27:16;;;;;;;14.82;9.60;;;14.10;99.90;;;;;;5033411;28;20144;-29
2022/07/01 03:29:42;;;;;;;20.77;10.55;;;14.10;99.90;;;;;;5033814;28;20033;-29
2022/07/01 03:32:26;;;;;;;18.65;11.57;;;14.10;99.90;;;;;;5050779;28;20029;-29
2022/07/01 03:34:53;;;;;;;21.15;11.10;;;14.10;99.90;;;;;;5038149;28;20489;-33
2022/07/01 03:37:19;;;;;;;23.08;10.63;;;14.10;99.90;;;;;;5033924;28;20021;-32
2022/07/01 03:39:45;;;;;;;22.67;11.45;;;14.10;99.90;;;;;;5033575;28;20082;-32
2022/07/01 03:42:11;;;;;;;18.58;12.02;;;14.10;99.90;;;;;;5032438;28;20025;-28
2022/07/01 03:44:37;;;;;;;30.20;12.02;;;14.10;99.90;;;;;;5034321;28;20022;-36
2022/07/01 03:47:07;;;;;;;21.17;10.57;;;14.10;99.90;;;;;;5033616;28;20045;-35
2022/07/01 03:49:34;;;;;;;22.45;11.15;;;14.10;99.90;;;;;;5034240;28;20025;-35
2022/07/01 03:51:59;;;;;;;23.77;11.15;;;14.10;99.90;;;;;;5049971;28;20031;-55
2022/07/01 03:54:32;;;;;;;20.95;11.13;;;14.10;99.90;;;;;;5034481;28;20409;-37
2022/07/01 03:57:05;;;;;;;18.52;10.98;;;14.10;99.90;;;;;;5034030;28;20362;-37
2022/07/01 03:59:35;;;;;;;22.45;11.95;;;14.10;99.90;;;;;;5031951;28;20026;-36
2022/07/01 04:02:02;;;;;;;25.33;11.27;;;14.10;99.90;;;;;;5033677;28;20385;-37
2022/07/01 04:04:28;;;;;;;21.98;11.05;;;14.10;99.90;;;;;;5032495;28;20025;-35
2022/07/01 04:06:55;;;;;;;25.75;10.95;;;14.10;99.90;;;;;;5033901;28;20049;-37
2022/07/01 04:09:21;;;;;;;28.55;12.02;;;14.20;99.90;;;;;;5033940;28;20497;-37
2022/07/01 04:11:48;;;;;;;25.20;12.20;;;14.20;99.90;;;;;;5031990;28;20053;-35
2022/07/01 04:14:14;;;;;;;23.95;12.50;;;14.20;99.90;;;;;;5032383;28;20448;-35
2022/07/01 04:16:41;;;;;;;28.35;11.88;;;14.20;99.90;;;;;;5032610;28;20454;-34
2022/07/01 04:19:08;;;;;;;22.52;11.68;;;14.20;99.90;;;;;;5033753;28;20017;-46
2022/07/01 04:24:18;;;;;;;21.40;11.63;;;14.30;99.90;;;;;;5030955;28;20079;-28
2022/07/01 04:26:44;;;;;;;22.05;11.82;;;14.30;99.90;;;;;;5033555;28;20474;-32
2022/07/01 04:29:10;;;;;;;19.75;11.05;;;14.30;99.90;;;;;;5030041;28;20029;-31
2022/07/01 04:31:36;;;;;;;22.73;12.13;;;14.30;99.90;;;;;;5032574;28;20367;-37
2022/07/01 04:34:02;;;;;;;25.58;12.63;;;14.30;99.90;;;;;;5032793;28;20029;-29
2022/07/01 04:36:28;;;;;;;24.23;12.65;;;14.30;99.90;;;;;;5030768;28;20053;-33
2022/07/01 04:38:54;;;;;;;18.95;10.75;;;14.30;99.90;;;;;;5033569;28;20119;-30
2022/07/01 04:44:04;;;;;;;22.55;11.43;;;14.40;99.90;;;;;;5032936;28;20386;-31
2022/07/01 04:46:29;;;;;;;22.35;10.77;;;14.40;99.90;;;;;;5033261;28;20029;-31
2022/07/01 04:48:55;;;;;;;23.88;10.95;;;14.40;99.90;;;;;;5035684;28;20030;-29
2022/07/01 04:51:21;;;;;;;25.90;11.05;;;14.40;99.90;;;;;;5032077;28;20033;-47
2022/07/01 04:53:47;;;;;;;17.77;10.57;;;14.40;99.90;;;;;;5031517;28;20018;-30
2022/07/01 04:56:12;;;;;;;23.65;10.65;;;14.40;99.90;;;;;;5030334;28;20576;-29
2022/07/01 04:58:38;;;;;;;23.23;11.02;;;14.50;99.90;;;;;;5033109;28;20049;-29
2022/07/01 05:01:03;;;;;;;21.33;10.63;;;14.50;99.90;;;;;;5033212;28;20052;-46
2022/07/01 05:03:29;;;;;;;17.23;9.25;;;14.60;99.90;;;;;;5032999;28;20024;-35
2022/07/01 05:05:55;;;;;;;24.02;10.55;;;14.60;99.90;;;;;;5032414;28;20512;-37
2022/07/01 05:08:20;;;;;;;24.02;11.55;;;14.60;99.90;;;;;;5030142;28;20032;-37
2022/07/01 05:10:46;;;;;;;21.73;10.02;;;14.70;99.90;;;;;;5031563;28;20481;-37
2022/07/01 05:13:12;;;;;;;23.60;9.73;;;14.70;99.90;;;;;;5031524;28;20405;-38
2022/07/01 05:15:37;;;;;;;20.40;9.70;;;14.80;99.90;;;;;;5033034;28;20504;-36
2022/07/01 05:23:31;;;;;;;15.30;9.05;;;14.90;99.90;;;;;;5027668;28;20048;-37
2022/07/01 05:25:57;;;;;;;13.35;8.07;;;15.00;99.90;;;;;;5053739;28;20025;-37
2022/07/01 05:28:22;;;;;;;13.68;8.68;;;15.00;99.90;;;;;;5032015;28;20083;-36
2022/07/01 05:30:48;;;;;;;18.25;8.88;;;15.00;99.90;;;;;;5031677;28;20030;-37
2022/07/01 05:33:14;;;;;;;14.05;8.00;;;15.00;99.90;;;;;;5035384;28;20104;-36
2022/07/01 05:35:39;;;;;;;15.68;7.63;;;15.00;99.90;;;;;;5034986;28;20022;-37
2022/07/01 05:38:05;;;;;;;11.38;7.78;;;15.10;99.90;;;;;;5035783;28;20474;-42
2022/07/01 05:40:30;;;;;;;10.57;6.53;;;15.10;99.90;;;;;;5035434;28;20083;-29
2022/07/01 05:42:56;;;;;;;11.48;7.47;;;15.20;99.90;;;;;;5036534;28;20519;-30
2022/07/01 05:45:21;;;;;;;15.40;6.65;;;15.20;99.90;;;;;;5036340;28;20034;-35
2022/07/01 05:47:47;;;;;;;10.57;6.60;;;15.20;99.90;;;;;;5036091;28;20022;-31
2022/07/01 05:50:13;;;;;;;10.73;6.05;;;15.20;99.90;;;;;;5041398;28;20024;-29
2022/07/01 05:52:38;;;;;;;12.23;5.55;;;15.10;99.90;;;;;;5056436;28;20079;-32
2022/07/01 05:55:04;;;;;;;12.38;6.07;;;15.20;99.90;;;;;;5049005;28;20083;-34
2022/07/01 05:57:30;;;;;;;11.60;6.15;;;15.20;99.90;;;;;;5035216;28;20036;-47
2022/07/01 05:59:55;;;;;;;14.82;5.88;;;15.20;99.90;;;;;;5035289;28;20026;-38
2022/07/01 06:02:23;;;;;;;10.63;6.25;;;15.20;99.90;;;;;;5036260;28;20029;-36
2022/07/01 06:04:49;;;;;;;10.93;5.78;;;15.30;99.90;;;;;;5034704;28;20068;-37
2022/07/01 06:07:14;;;;;;;13.27;5.95;;;15.30;99.90;;;;;;5030052;28;20037;-38
2022/07/01 06:09:40;;;;;;;12.05;5.75;;;15.30;99.90;;;;;;5034974;28;20029;-37
2022/07/01 06:12:06;;;;;;;10.95;5.28;;;15.40;99.90;;;;;;5035595;28;20033;-36
2022/07/01 06:14:32;;;;;;;11.25;5.80;;;15.50;99.90;;;;;;5035496;28;20393;-37
2022/07/01 06:16:58;;;;;;;8.98;5.18;;;15.50;99.90;;;;;;5035102;28;20040;-38
2022/07/01 06:19:24;;;;;;;10.40;5.95;;;15.80;99.90;;;;;;5035355;28;20105;-38
2022/07/01 06:21:49;;;;;;;12.98;5.80;;;16.10;99.90;;;;;;5035116;28;20075;-36
2022/07/01 06:24:15;;;;;;;8.05;4.78;;;16.40;99.90;;;;;;5055800;28;20032;-38
2022/07/01 06:26:41;;;;;;;10.68;4.22;;;17.10;99.90;;;;;;5055624;28;20033;-38
2022/07/01 06:29:07;;;;;;;10.02;4.15;;;18.70;99.90;;;;;;5055716;28;20029;-40
2022/07/01 06:31:35;;;;;;;7.97;4.15;;;20.10;99.90;;;;;;5047843;28;20474;-35
2022/07/01 06:34:01;;;;;;;7.90;2.97;;;21.30;99.90;;;;;;5036447;28;20466;-37
2022/07/01 06:36:26;;;;;;;12.13;3.70;;;22.10;99.90;;;;;;5037416;28;20031;-35
2022/07/01 06:38:52;;;;;;;8.48;3.65;;;22.20;99.90;;;;;;5034357;28;20524;-38
2022/07/01 06:41:27;;;;;;;7.40;2.85;;;22.10;99.90;;;;;;5036187;28;20072;-38
2022/07/01 06:44:01;;;;;;;8.48;3.33;;;22.00;99.90;;;;;;5042011;28;20032;-30
2022/07/01 06:46:27;;;;;;;5.05;3.00;;;21.90;99.90;;;;;;5038796;28;20023;-34
2022/07/01 06:48:54;;;;;;;8.47;3.60;;;21.10;99.90;;;;;;5034254;28;20487;-31
2022/07/01 06:51:19;;;;;;;6.10;3.17;;;20.20;99.90;;;;;;5036502;28;20033;-30
2022/07/01 06:53:46;;;;;;;7.97;4.18;;;19.50;99.90;;;;;;5055187;28;20366;-48
2022/07/01 06:56:13;;;;;;;10.23;3.30;;;19.00;99.90;;;;;;5041523;28;20079;-40
2022/07/01 06:58:39;;;;;;;9.18;3.97;;;18.70;99.90;;;;;;5035156;28;20028;-37
2022/07/01 07:01:05;;;;;;;10.90;3.60;;;18.60;99.90;;;;;;5035184;28;20024;-41
2022/07/01 07:03:32;;;;;;;9.70;4.25;;;18.50;99.90;;;;;;5033671;28;20037;-39
2022/07/01 07:06:02;;;;;;;7.97;3.35;;;18.40;99.90;;;;;;5033148;28;20037;-39
2022/07/01 07:08:31;;;;;;;11.05;3.20;;;18.20;99.90;;;;;;5035283;28;20393;-39
2022/07/01 07:10:57;;;;;;;9.95;2.90;;;18.80;99.90;;;;;;5034413;28;20025;-39
2022/07/01 07:13:25;;;;;;;12.93;3.33;;;20.10;99.90;;;;;;5035183;28;20079;-38
2022/07/01 07:15:50;;;;;;;3.40;2.63;;;21.90;99.90;;;;;;5034598;28;20061;-38
2022/07/01 07:18:16;;;;;;;5.57;2.80;;;21.50;99.90;;;;;;5034872;28;20053;-38
2022/07/01 07:20:42;;;;;;;6.10;2.85;;;21.10;99.90;;;;;;5031921;28;20056;-38
2022/07/01 07:23:08;;;;;;;7.88;2.63;;;21.60;99.90;;;;;;5033913;28;21298;-37
2022/07/01 07:25:33;;;;;;;7.47;1.90;;;22.50;99.90;;;;;;5035036;28;20036;-38
2022/07/01 07:27:59;;;;;;;9.52;2.63;;;23.40;99.90;;;;;;5034690;28;20030;-38
2022/07/01 07:30:25;;;;;;;6.63;2.15;;;23.90;99.90;;;;;;5034548;28;20118;-38
2022/07/01 07:32:51;;;;;;;12.07;2.78;;;24.20;99.90;;;;;;5034425;28;20256;-41
2022/07/01 07:35:17;;;;;;;9.00;2.45;;;24.60;99.90;;;;;;5050189;28;20503;-38
2022/07/01 07:37:43;;;;;;;11.13;2.38;;;23.70;99.90;;;;;;5054654;28;20017;-38
2022/07/01 07:40:11;;;;;;;9.07;2.33;;;22.30;99.90;;;;;;5050139;28;20478;-38
2022/07/01 07:42:38;;;;;;;6.20;2.00;;;21.00;99.90;;;;;;5034494;28;20049;-37
2022/07/01 07:45:06;;;;;;;4.03;1.80;;;20.40;99.90;;;;;;5034315;28;20056;-37
2022/07/01 07:47:33;;;;;;;5.80;1.70;;;20.60;99.90;;;;;;5032977;28;20784;-36
2022/07/01 07:49:58;;;;;;;4.03;1.80;;;20.80;99.90;;;;;;5045648;28;20018;-38
2022/07/01 07:52:24;;;;;;;5.50;1.77;;;20.80;99.90;;;;;;5031373;28;20540;-37
2022/07/01 07:54:50;;;;;;;10.50;1.48;;;20.70;99.90;;;;;;5013829;28;20042;-42
2022/07/01 07:57:15;;;;;;;3.97;1.10;;;20.50;99.90;;;;;;5014360;28;20540;-36
2022/07/01 07:59:41;;;;;;;4.32;1.48;;;20.10;99.90;;;;;;5030357;28;20060;-37
2022/07/01 08:02:07;;;;;;;4.30;1.50;;;19.70;99.90;;;;;;5047310;28;20029;-38
2022/07/01 08:04:32;;;;;;;4.20;1.95;;;19.50;99.90;;;;;;5053867;28;20059;-42
2022/07/01 08:06:58;;;;;;;11.35;1.80;;;19.30;99.90;;;;;;5038184;28;20025;-38
2022/07/01 08:09:26;;;;;;;6.82;1.35;;;19.30;99.90;;;;;;5041707;28;20425;-35
2022/07/01 08:11:51;;;;;;;4.30;1.42;;;19.20;99.90;;;;;;5032554;28;20048;-37
2022/07/01 08:14:17;;;;;;;2.22;1.00;;;18.90;99.90;;;;;;5031919;28;20124;-38
2022/07/01 08:16:43;;;;;;;2.80;1.13;;;18.90;99.90;;;;;;5053665;28;20481;-37
2022/07/01 08:19:08;;;;;;;5.75;1.58;;;19.30;99.90;;;;;;5039978;28;20025;-36
2022/07/01 08:21:34;;;;;;;2.28;1.02;;;20.00;99.90;;;;;;5033779;28;20024;-33
2022/07/01 08:24:00;;;;;;;4.40;1.65;;;20.50;99.90;;;;;;5033927;28;20025;-38
2022/07/01 08:26:25;;;;;;;7.03;1.05;;;21.10;99.90;;;;;;5030117;28;20072;-41
2022/07/01 08:28:51;;;;;;;4.93;0.77;;;21.40;99.90;;;;;;5043627;28;20029;-31
2022/07/01 08:31:16;;;;;;;3.90;1.00;;;21.50;99.90;;;;;;5028941;28;20033;-31
2022/07/01 08:33:42;;;;;;;3.03;0.52;;;21.40;99.90;;;;;;5032187;28;20064;-30
2022/07/01 08:36:09;;;;;;;5.53;1.17;;;21.10;99.90;;;;;;5034504;28;20033;-49
2022/07/01 08:38:35;;;;;;;2.30;0.68;;;20.60;99.90;;;;;;5030651;28;20020;-38
2022/07/01 08:41:02;;;;;;;3.47;1.17;;;20.60;99.90;;;;;;5032995;28;20489;-38
2022/07/01 08:43:28;;;;;;;2.23;0.77;;;21.20;99.90;;;;;;5032020;28;20021;-47
2022/07/01 08:45:54;;;;;;;2.42;0.82;;;21.60;99.90;;;;;;5042420;28;20806;-39
2022/07/01 08:48:20;;;;;;;1.27;0.73;;;21.60;99.90;;;;;;5053179;28;20033;-39
2022/07/01 08:50:46;;;;;;;4.70;0.77;;;21.70;99.90;;;;;;5043091;28;20552;-38
2022/07/01 08:53:12;;;;;;;5.82;0.70;;;21.50;99.90;;;;;;5032612;28;20052;-37
2022/07/01 08:58:25;;;;;;;4.47;0.82;;;21.00;99.90;;;;;;5030553;28;20040;-38
2022/07/01 09:00:50;;;;;;;;;;;20.70;99.90;;;;;;5024080;28;20018;-38
2022/07/01 09:03:21;;;;;;;3.85;1.10;;;20.50;99.90;;;;;;5032084;28;20266;-37
2022/07/01 09:05:51;;;;;;;4.72;1.33;;;20.90;99.90;;;;;;5029261;28;20026;-38
2022/07/01 09:08:18;;;;;;;1.30;0.80;;;21.70;99.90;;;;;;5033570;28;20042;-39
2022/07/01 09:10:44;;;;;;;1.80;0.70;;;22.20;99.90;;;;;;5037135;28;20026;-38
2022/07/01 09:13:12;;;;;;;6.43;1.23;;;22.30;99.90;;;;;;5035570;28;20326;-39
2022/07/01 09:15:39;;;;;;;4.15;1.55;;;22.20;99.90;;;;;;5036846;28;20033;-39
2022/07/01 09:18:13;;;;;;;3.35;0.63;;;22.00;99.90;;;;;;5036868;28;20382;-37
2022/07/01 09:20:41;;;;;;;1.35;0.50;;;22.30;99.90;;;;;;5043259;28;20025;-37
2022/07/01 09:23:12;;;;;;;4.70;1.42;;;22.50;99.90;;;;;;5037535;28;20108;-39
2022/07/01 09:25:47;;;;;;;3.38;0.80;;;22.40;99.90;;;;;;5021484;28;20031;-39
2022/07/01 09:28:26;;;;;;;1.45;0.52;;;21.80;99.90;;;;;;5055168;28;20535;-37
2022/07/01 09:30:54;;;;;;;1.85;0.40;;;21.40;99.90;;;;;;5049531;28;20493;-38
2022/07/01 09:33:23;;;;;;;2.65;0.60;;;21.20;99.90;;;;;;5037359;28;20116;-36
2022/07/01 09:35:49;;;;;;;3.30;0.85;;;21.30;99.90;;;;;;5037334;28;20036;-38
2022/07/01 09:38:21;;;;;;;6.07;0.70;;;21.50;99.90;;;;;;5051862;28;20350;-36
2022/07/01 09:40:58;;;;;;;1.95;1.08;;;21.80;99.90;;;;;;5040270;28;20060;-38
2022/07/01 09:43:28;;;;;;;1.48;0.63;;;22.00;99.90;;;;;;5036332;28;20057;-39
2022/07/01 09:46:01;;;;;;;2.83;0.68;;;22.30;99.90;;;;;;5036502;28;20080;-58
2022/07/01 09:48:43;;;;;;;3.42;0.43;;;22.60;99.90;;;;;;5036747;28;20508;-39
2022/07/01 09:51:10;;;;;;;2.38;0.80;;;22.70;99.80;;;;;;5030570;28;20374;-36
2022/07/01 09:53:36;;;;;;;1.73;0.50;;;22.40;99.90;;;;;;5036566;28;20052;-38
2022/07/01 09:56:01;;;;;;;2.50;0.57;;;22.20;99.90;;;;;;5036314;28;20026;-34
2022/07/01 09:58:27;;;;;;;1.85;0.70;;;22.20;99.90;;;;;;5036155;28;20028;-38
2022/07/01 10:00:54;;;;;;;3.35;0.40;;;22.10;99.60;;;;;;5034109;28;20033;-32
2022/07/01 10:03:21;;;;;;;1.50;0.40;;;22.20;99.90;;;;;;5049255;28;20534;-46
2022/07/01 10:06:01;;;;;;;1.25;0.50;;;22.60;99.60;;;;;;5041027;28;20486;-31
2022/07/01 10:08:49;;;;;;;2.22;0.60;;;23.10;99.30;;;;;;5030927;28;20032;-38
2022/07/01 10:11:42;;;;;;;4.85;0.45;;;23.50;98.50;;;;;;5016079;28;20030;-34
2022/07/01 10:14:11;;;;;;;8.43;1.02;;;24.10;98.20;;;;;;5027350;28;20041;-33
2022/07/01 10:16:38;;;;;;;2.53;0.90;;;24.80;95.90;;;;;;5035194;28;20026;-38
2022/07/01 10:19:28;;;;;;;2.15;0.32;;;25.40;96.30;;;;;;5034463;28;20496;-31
2022/07/01 10:21:56;;;;;;;2.08;0.70;;;25.70;96.30;;;;;;5027715;28;20498;-34
2022/07/01 10:24:24;;;;;;;4.38;0.95;;;26.20;95.20;;;;;;5039120;28;20485;-33
2022/07/01 10:26:50;;;;;;;5.13;0.50;;;26.40;95.00;;;;;;5033941;28;20502;-32
2022/07/01 10:29:36;;;;;;;0.77;0.43;;;26.20;95.10;;;;;;5039645;28;20122;-33
2022/07/01 10:32:11;;;;;;;5.13;0.43;;;25.80;94.90;;;;;;5034412;28;20045;-37
2022/07/01 10:34:41;;;;;;;3.47;0.57;;;25.30;95.10;;;;;;5029588;28;20014;-35
2022/07/01 10:37:11;;;;;;;2.58;0.45;;;24.90;94.90;;;;;;5034065;28;20029;-35
2022/07/01 10:40:00;;;;;;;1.13;0.32;;;24.20;96.30;;;;;;5034001;28;20022;-36
2022/07/01 10:42:37;;;;;;;1.13;0.60;;;24.10;96.30;;;;;;5026389;28;20124;-30
2022/07/01 10:45:06;;;;;;;3.70;0.70;;;24.40;95.40;;;;;;5034234;28;20022;-34
2022/07/01 10:47:32;;;;;;;3.13;0.50;;;24.60;94.80;;;;;;5033452;28;20037;-32
2022/07/01 10:50:05;;;;;;;5.78;0.70;;;24.50;95.30;;;;;;5035273;28;20425;-39
2022/07/01 10:52:31;;;;;;;2.10;0.70;;;24.20;96.10;;;;;;5032519;28;20034;-34
2022/07/01 10:54:58;;;;;;;1.35;0.60;;;24.10;96.40;;;;;;5034482;28;20036;-50
2022/07/01 10:57:32;;;;;;;2.00;0.50;;;24.10;95.70;;;;;;5034235;28;20025;-37
2022/07/01 11:00:01;;;;;;;4.75;0.52;;;23.80;96.90;;;;;;5034421;28;20022;-37
2022/07/01 11:02:35;;;;;;;0.75;0.30;;;23.60;95.60;;;;;;5033512;28;20021;-37
2022/07/01 11:05:03;;;;;;;1.80;0.40;;;23.40;96.40;;;;;;5033038;28;20040;-37
2022/07/01 11:07:34;;;;;;;1.08;0.40;;;23.30;96.70;;;;;;5030612;28;20104;-39
2022/07/01 11:10:02;;;;;;;1.35;0.50;;;23.30;96.70;;;;;;5034009;28;20037;-45
2022/07/01 11:12:29;;;;;;;5.55;0.50;;;23.00;97.10;;;;;;5032845;28;20022;-38
2022/07/01 11:15:01;;;;;;;1.80;0.65;;;22.90;97.10;;;;;;5032202;28;20045;-36
2022/07/01 11:17:27;;;;;;;6.72;0.85;;;22.80;96.90;;;;;;5049069;28;20494;-39
2022/07/01 11:19:57;;;;;;;4.03;0.93;;;22.70;97.50;;;;;;5034905;28;20017;-37
2022/07/01 11:22:26;;;;;;;1.48;0.38;;;22.60;98.10;;;;;;5033925;28;20470;-39
2022/07/01 11:24:53;;;;;;;4.30;0.73;;;22.60;97.90;;;;;;5033870;28;20026;-38
2022/07/01 11:27:19;;;;;;;3.10;0.50;;;22.70;97.80;;;;;;5030667;28;20446;-37
2022/07/01 11:29:45;;;;;;;1.30;1.15;;;22.70;97.00;;;;;;5032068;28;20106;-38
2022/07/01 11:32:10;;;;;;;5.38;0.50;;;22.40;97.70;;;;;;5034663;28;20029;-38
2022/07/01 11:34:37;;;;;;;9.88;0.88;;;22.30;97.40;;;;;;5033505;28;20083;-43
2022/07/01 11:40:14;;;;;;;4.05;0.85;;;22.50;98.00;;;;;;5033524;28;20033;-35
2022/07/01 11:42:41;;;;;;;3.40;0.50;;;22.70;96.70;;;;;;5033072;28;20033;-29
2022/07/01 11:45:07;;;;;;;1.75;0.60;;;22.70;96.40;;;;;;5032096;28;20112;-33
2022/07/01 11:47:33;;;;;;;4.68;0.47;;;22.70;96.30;;;;;;5030149;28;20436;-31
2022/07/01 11:50:00;;;;;;;1.48;0.50;;;22.70;95.70;;;;;;5034237;28;20132;-30
2022/07/01 11:52:27;;;;;;;2.90;0.30;;;22.80;96.30;;;;;;5028691;28;20111;-36
2022/07/01 11:54:57;;;;;;;2.13;0.45;;;23.00;96.00;;;;;;5014649;28;20044;-33
2022/07/01 11:57:26;;;;;;;5.40;0.45;;;23.10;96.20;;;;;;5026839;28;20021;-31
2022/07/01 11:59:54;;;;;;;3.42;0.65;;;23.30;96.40;;;;;;5014176;28;20029;-30
2022/07/01 12:02:24;;;;;;;1.05;0.95;;;23.40;95.50;;;;;;5014494;28;20018;-29
2022/07/01 12:04:51;;;;;;;1.00;0.50;;;23.50;95.80;;;;;;5033351;28;20060;-35
2022/07/01 12:07:35;;;;;;;2.40;0.68;;;23.50;96.10;;;;;;5032447;28;20474;-35
2022/07/01 12:10:04;;;;;;;0.30;0.30;;;23.60;94.70;;;;;;5032889;28;20025;-34
2022/07/01 12:12:29;;;;;;;3.03;0.77;;;23.70;95.90;;;;;;5033506;28;20402;-39
2022/07/01 12:14:57;;;;;;;3.28;1.02;;;23.80;95.20;;;;;;5032510;28;20038;-28
2022/07/01 12:17:24;;;;;;;1.50;0.50;;;23.90;95.10;;;;;;5032949;28;20485;-30
2022/07/01 12:19:52;;;;;;;1.27;0.50;;;23.80;95.20;;;;;;5032724;28;20072;-31
2022/07/01 12:22:26;;;;;;;3.55;0.80;;;23.40;94.90;;;;;;5033672;28;20013;-37
2022/07/01 12:25:04;;;;;;;1.70;0.68;;;23.00;95.30;;;;;;5031888;28;20386;-29
2022/07/01 12:27:33;;;;;;;1.92;0.63;;;22.60;95.70;;;;;;5022095;28;20474;-31
2022/07/01 12:29:59;;;;;;;0.77;0.30;;;22.40;96.50;;;;;;5031444;28;20029;-32
2022/07/01 12:32:28;;;;;;;0.63;0.63;;;22.20;96.90;;;;;;5033742;28;20395;-32
2022/07/01 12:35:01;;;;;;;1.92;1.00;;;22.00;97.10;;;;;;5032301;28;20029;-34
2022/07/01 12:37:27;;;;;;;8.07;0.55;;;21.80;97.30;;;;;;5032213;28;20041;-35
2022/07/01 12:39:58;;;;;;;4.32;0.70;;;21.40;98.00;;;;;;5033307;28;20478;-32
2022/07/01 12:42:38;;;;;;;2.25;0.90;;;20.90;99.00;;;;;;5033275;28;20481;-39
2022/07/01 12:45:07;;;;;;;5.45;0.57;;;20.70;99.90;;;;;;5033674;28;20021;-38
2022/07/01 12:47:44;;;;;;;1.20;0.70;;;20.30;99.90;;;;;;5033347;28;20033;-38
2022/07/01 12:50:14;;;;;;;4.43;0.80;;;20.00;99.90;;;;;;5033296;28;20462;-39
2022/07/01 12:53:01;;;;;;;2.15;0.68;;;19.80;99.90;;;;;;5033290;28;20033;-38
2022/07/01 12:55:28;;;;;;;;;;;19.70;99.90;;;;;;5033608;28;20087;-38
2022/07/01 12:57:55;;;;;;;5.43;0.90;;;19.60;99.90;;;;;;5033230;28;19955;-39
2022/07/01 13:00:23;;;;;;;2.40;1.30;;;19.60;99.90;;;;;;5032009;28;20083;-39